Time;durP1;ratioP1;P1;durP2;ratioP2;P2;SDS_P1;SDS_P2;PMS_P1;PMS_P2;Temp;Humidity;BMP_temperature;BMP_pressure;BME280_temperature;BME280_humidity;BME280_pressure;Samples;Min_cycle;Max_cycle;Signal;HPM_P1;HPM_P2
2022/11/12 00:01:21;;;;;;;0.13;0.13;;;4.00;99.90;;;;;;5045824;28;20116;-77
2022/11/12 00:03:47;;;;;;;0.70;0.57;;;4.00;99.90;;;;;;5063927;28;20049;-77
2022/11/12 00:06:12;;;;;;;0.38;0.38;;;3.90;99.90;;;;;;5064761;28;20055;-77
2022/11/12 00:08:38;;;;;;;0.10;0.10;;;3.90;99.90;;;;;;5062153;28;20496;-76
2022/11/12 00:11:04;;;;;;;0.35;0.35;;;3.80;99.90;;;;;;5063395;28;20048;-77
2022/11/12 00:13:29;;;;;;;0.40;0.40;;;3.80;99.90;;;;;;5061432;28;20068;-77
2022/11/12 00:15:55;;;;;;;0.10;0.10;;;3.80;99.90;;;;;;5063664;28;20037;-77
2022/11/12 00:18:21;;;;;;;0.10;0.10;;;3.90;99.90;;;;;;5063796;28;20039;-77
2022/11/12 00:20:47;;;;;;;0.43;0.43;;;3.80;99.90;;;;;;5067523;28;20035;-77
2022/11/12 00:23:12;;;;;;;0.03;0.03;;;3.80;99.90;;;;;;5068642;28;20441;-77
2022/11/12 00:25:38;;;;;;;0.00;0.00;;;3.90;99.90;;;;;;5064951;28;20040;-77
2022/11/12 00:28:06;;;;;;;0.08;0.08;;;3.90;99.90;;;;;;5064368;28;20044;-77
2022/11/12 00:30:32;;;;;;;0.10;0.10;;;3.90;99.90;;;;;;5065073;28;20060;-76
2022/11/12 00:33:01;;;;;;;1.00;0.98;;;3.80;99.90;;;;;;5066877;28;20056;-76
2022/11/12 00:35:27;;;;;;;3.60;1.50;;;3.90;99.90;;;;;;5064304;28;20044;-77
2022/11/12 00:37:56;;;;;;;1.10;0.80;;;3.90;99.90;;;;;;5063146;28;20071;-77
2022/11/12 00:40:22;;;;;;;0.45;0.45;;;3.80;99.90;;;;;;5065175;28;20052;-77
2022/11/12 00:42:51;;;;;;;0.13;0.13;;;3.70;99.90;;;;;;5067593;28;20077;-77
2022/11/12 00:45:17;;;;;;;0.30;0.30;;;3.80;99.90;;;;;;5068256;28;20477;-77
2022/11/12 00:47:42;;;;;;;0.00;0.00;;;3.80;99.90;;;;;;5066095;28;20025;-77
2022/11/12 00:50:09;;;;;;;0.00;0.00;;;3.70;99.90;;;;;;5065838;28;20083;-75
2022/11/12 00:52:34;;;;;;;0.73;0.73;;;3.70;99.90;;;;;;5065743;28;20025;-77
2022/11/12 00:55:00;;;;;;;2.60;1.27;;;3.80;99.90;;;;;;5068386;28;20529;-77
2022/11/12 00:57:26;;;;;;;0.00;0.00;;;3.80;99.90;;;;;;5067916;28;20048;-77
2022/11/12 00:59:51;;;;;;;0.70;0.70;;;3.90;99.90;;;;;;5067786;28;20088;-78
2022/11/12 01:02:18;;;;;;;0.60;0.55;;;3.90;99.90;;;;;;5067502;28;20025;-77
2022/11/12 01:04:44;;;;;;;1.70;1.52;;;3.90;99.90;;;;;;5068003;28;20033;-78
2022/11/12 01:07:10;;;;;;;0.35;0.35;;;3.90;99.90;;;;;;5069112;28;20059;-77
2022/11/12 01:09:36;;;;;;;0.52;0.52;;;4.00;99.90;;;;;;5067319;28;20067;-77
2022/11/12 01:12:02;;;;;;;1.20;0.93;;;4.20;99.90;;;;;;5067987;28;20057;-77
2022/11/12 01:14:27;;;;;;;1.30;1.13;;;4.30;99.90;;;;;;5066526;28;20041;-76
2022/11/12 01:16:53;;;;;;;1.15;0.43;;;4.20;99.90;;;;;;5066157;28;20049;-77
2022/11/12 01:19:19;;;;;;;0.70;0.70;;;4.20;99.90;;;;;;5064147;28;20037;-77
2022/11/12 01:21:44;;;;;;;0.43;0.43;;;4.10;99.90;;;;;;5067716;28;20094;-77
2022/11/12 01:24:11;;;;;;;0.25;0.25;;;4.20;99.90;;;;;;5067790;28;20052;-77
2022/11/12 01:26:37;;;;;;;0.93;0.80;;;4.10;99.90;;;;;;5071135;28;20036;-77
2022/11/12 01:29:04;;;;;;;0.40;0.40;;;4.10;99.90;;;;;;5071510;28;20060;-76
2022/11/12 01:31:37;;;;;;;0.45;0.45;;;4.10;99.90;;;;;;5069233;28;20044;-77
2022/11/12 01:34:08;;;;;;;0.95;0.80;;;4.10;99.90;;;;;;5050629;28;20053;-78
2022/11/12 01:36:42;;;;;;;0.80;0.63;;;4.10;99.90;;;;;;5051640;28;20140;-77
2022/11/12 01:39:08;;;;;;;0.30;0.28;;;4.10;99.90;;;;;;5052160;28;20056;-77
2022/11/12 01:41:36;;;;;;;0.10;0.10;;;4.20;99.90;;;;;;5050962;28;20049;-77
2022/11/12 01:44:10;;;;;;;0.55;0.55;;;4.20;99.90;;;;;;5050835;28;20420;-77
2022/11/12 01:46:49;;;;;;;1.35;1.02;;;4.20;99.90;;;;;;5051104;28;20045;-77
2022/11/12 01:49:21;;;;;;;2.40;1.20;;;4.30;99.90;;;;;;5049655;28;20028;-75
2022/11/12 01:51:49;;;;;;;1.10;0.70;;;4.20;99.90;;;;;;5050576;28;20033;-77
2022/11/12 01:54:18;;;;;;;0.05;0.05;;;4.20;99.90;;;;;;5049767;28;20867;-76
2022/11/12 01:56:44;;;;;;;0.10;0.10;;;4.20;99.90;;;;;;5049501;28;20511;-75
2022/11/12 01:59:24;;;;;;;0.13;0.13;;;4.10;99.90;;;;;;5049698;28;20093;-76
2022/11/12 02:01:49;;;;;;;0.50;0.50;;;4.10;99.90;;;;;;5050776;28;20049;-77
2022/11/12 02:04:15;;;;;;;0.20;0.20;;;4.00;99.90;;;;;;5049736;28;20045;-77
2022/11/12 02:06:43;;;;;;;2.00;1.85;;;4.00;99.90;;;;;;5050798;28;20101;-77
2022/11/12 02:09:09;;;;;;;1.38;1.02;;;4.00;99.90;;;;;;5049810;28;20121;-77
2022/11/12 02:11:34;;;;;;;0.80;0.80;;;4.00;99.90;;;;;;5048650;28;20045;-77
2022/11/12 02:14:00;;;;;;;0.22;0.22;;;4.00;99.90;;;;;;5050101;28;20025;-77
2022/11/12 02:16:47;;;;;;;1.00;0.45;;;4.00;99.90;;;;;;5050656;28;20065;-77
2022/11/12 02:19:15;;;;;;;0.73;0.73;;;4.10;99.90;;;;;;5049988;28;20045;-76
2022/11/12 02:21:41;;;;;;;1.60;1.50;;;4.10;99.90;;;;;;5046733;28;20029;-76
2022/11/12 02:24:13;;;;;;;0.63;0.63;;;4.00;99.90;;;;;;5047949;28;20029;-77
2022/11/12 02:26:50;;;;;;;0.20;0.20;;;4.00;99.90;;;;;;5049776;28;20042;-78
2022/11/12 02:29:16;;;;;;;1.15;0.98;;;3.90;99.90;;;;;;5048161;28;20041;-77
2022/11/12 02:31:41;;;;;;;0.00;0.00;;;3.90;99.90;;;;;;5048906;28;20018;-77
2022/11/12 02:34:07;;;;;;;0.82;0.80;;;3.90;99.90;;;;;;5047284;28;20089;-77
2022/11/12 02:36:33;;;;;;;0.35;0.35;;;3.90;99.90;;;;;;5046590;28;20088;-76
2022/11/12 02:38:58;;;;;;;0.52;0.52;;;3.90;99.90;;;;;;5046437;28;20049;-77
2022/11/12 02:41:24;;;;;;;0.65;0.65;;;3.80;99.90;;;;;;5047145;28;20160;-78
2022/11/12 02:43:50;;;;;;;37.38;1.85;;;3.80;99.90;;;;;;5050780;28;20034;-77
2022/11/12 02:46:15;;;;;;;0.95;0.85;;;3.70;99.90;;;;;;5049467;28;20041;-77
2022/11/12 02:48:41;;;;;;;0.20;0.20;;;3.80;99.90;;;;;;5049563;28;20038;-78
2022/11/12 02:51:07;;;;;;;0.60;0.60;;;3.80;99.90;;;;;;5049651;28;20041;-78
2022/11/12 02:53:33;;;;;;;0.63;0.63;;;3.80;99.90;;;;;;5045027;28;20120;-76
2022/11/12 02:55:59;;;;;;;0.55;0.40;;;3.80;99.90;;;;;;5120095;22;21235;-78
2022/11/12 02:58:25;;;;;;;0.50;0.47;;;3.70;99.90;;;;;;5053781;28;20059;-78
2022/11/12 03:00:51;;;;;;;0.98;0.93;;;3.60;99.90;;;;;;5043105;28;20052;-77
2022/11/12 03:03:17;;;;;;;0.22;0.22;;;3.70;99.90;;;;;;5047722;28;20048;-77
2022/11/12 03:05:43;;;;;;;0.45;0.45;;;3.60;99.90;;;;;;5048718;28;20041;-77
2022/11/12 03:08:09;;;;;;;0.90;0.80;;;3.60;99.90;;;;;;5047727;28;20481;-78
2022/11/12 03:10:39;;;;;;;0.30;0.30;;;3.60;99.90;;;;;;5056275;28;20444;-78
2022/11/12 03:13:05;;;;;;;0.45;0.45;;;3.60;99.90;;;;;;5067156;28;20041;-78
2022/11/12 03:15:31;;;;;;;2.05;1.85;;;3.60;99.90;;;;;;5065120;28;20680;-78
2022/11/12 03:17:58;;;;;;;1.13;0.98;;;3.70;99.90;;;;;;5048334;28;20079;-78
2022/11/12 03:20:24;;;;;;;1.33;1.23;;;3.60;99.90;;;;;;5065691;28;21086;-78
2022/11/12 03:23:02;;;;;;;0.22;0.22;;;3.60;99.90;;;;;;5067300;28;20054;-78
2022/11/12 03:25:28;;;;;;;1.75;1.50;;;3.70;99.90;;;;;;5050007;28;20057;-78
2022/11/12 03:28:06;;;;;;;0.47;0.47;;;3.70;99.90;;;;;;5067924;28;20051;-78
2022/11/12 03:30:37;;;;;;;0.40;0.40;;;3.60;99.90;;;;;;5066122;28;20048;-79
2022/11/12 03:33:03;;;;;;;1.98;1.23;;;3.60;99.90;;;;;;5067285;28;20076;-78
2022/11/12 03:35:29;;;;;;;0.10;0.10;;;3.60;99.90;;;;;;5070087;28;20044;-79
2022/11/12 03:37:54;;;;;;;0.57;0.57;;;3.50;99.90;;;;;;5060447;28;20048;-80
2022/11/12 03:40:20;;;;;;;2.55;2.03;;;3.50;99.90;;;;;;5062020;28;20134;-79
2022/11/12 03:42:48;;;;;;;0.05;0.05;;;3.40;99.90;;;;;;5068959;28;20094;-79
2022/11/12 03:45:14;;;;;;;1.17;0.38;;;3.40;99.90;;;;;;5069732;28;20103;-79
2022/11/12 03:47:44;;;;;;;0.10;0.10;;;3.30;99.90;;;;;;5066957;28;20070;-79
2022/11/12 03:50:12;;;;;;;0.75;0.75;;;3.20;99.90;;;;;;5067867;28;20044;-79
2022/11/12 03:52:38;;;;;;;1.45;0.43;;;3.30;99.90;;;;;;5068278;28;20052;-79
2022/11/12 03:55:07;;;;;;;0.38;0.38;;;3.40;99.90;;;;;;5068018;28;20124;-79
2022/11/12 03:57:32;;;;;;;0.10;0.10;;;3.40;99.90;;;;;;5067107;28;20063;-79
2022/11/12 03:59:58;;;;;;;1.58;0.38;;;3.30;99.90;;;;;;5067595;28;20040;-79
2022/11/12 04:02:25;;;;;;;0.10;0.10;;;3.10;99.90;;;;;;5067618;28;20067;-80
2022/11/12 04:10:21;;;;;;;0.20;0.20;;;2.60;99.90;;;;;;5067448;28;20489;-79
2022/11/12 04:15:31;;;;;;;0.50;0.28;;;2.50;99.90;;;;;;5067878;28;20117;-79
2022/11/12 04:23:25;;;;;;;0.17;0.17;;;2.60;99.90;;;;;;5067503;28;20048;-79
2022/11/12 04:28:36;;;;;;;0.20;0.20;;;2.50;99.90;;;;;;5065874;28;20052;-79
2022/11/12 04:31:01;;;;;;;0.00;0.00;;;2.40;99.90;;;;;;5065444;28;20048;-79
2022/11/12 04:33:27;;;;;;;0.30;0.30;;;2.40;99.90;;;;;;5064804;28;20080;-79
2022/11/12 04:35:52;;;;;;;0.05;0.05;;;2.40;99.90;;;;;;5064520;28;20045;-79
2022/11/12 04:38:18;;;;;;;1.50;1.05;;;2.40;99.90;;;;;;5064408;28;20493;-79
2022/11/12 04:46:12;;;;;;;0.63;0.17;;;2.20;99.90;;;;;;5064126;28;20059;-79
2022/11/12 04:48:38;;;;;;;0.75;0.75;;;2.20;99.90;;;;;;5064296;28;20410;-79
2022/11/12 04:52:03;;;;;;;0.63;0.63;;;2.20;99.90;;;;;;5064886;28;20050;-79
2022/11/12 04:53:53;;;;;;;1.25;1.15;;;2.20;99.90;;;;;;5064423;28;20049;-79
2022/11/12 04:56:19;;;;;;;0.10;0.10;;;2.10;99.90;;;;;;5064443;28;20437;-79
2022/11/12 04:58:45;;;;;;;0.25;0.25;;;2.10;99.90;;;;;;5065160;28;20044;-79
2022/11/12 05:01:10;;;;;;;0.98;0.90;;;2.10;99.90;;;;;;5068071;28;20494;-79
2022/11/12 05:03:36;;;;;;;0.20;0.20;;;2.00;99.90;;;;;;5069030;28;20091;-79
2022/11/12 05:06:50;;;;;;;0.00;0.00;;;2.00;99.90;;;;;;5068384;28;20177;-79
2022/11/12 05:08:49;;;;;;;0.00;0.00;;;1.90;99.90;;;;;;5068873;28;20056;-79
2022/11/12 05:11:15;;;;;;;0.13;0.13;;;2.00;99.90;;;;;;5067806;28;20055;-79
2022/11/12 05:13:41;;;;;;;0.17;0.17;;;1.90;99.90;;;;;;5068475;28;20048;-79
2022/11/12 05:16:06;;;;;;;0.28;0.28;;;1.90;99.90;;;;;;5068750;28;20089;-79
2022/11/12 05:18:32;;;;;;;0.10;0.10;;;2.00;99.90;;;;;;5068946;28;20040;-79
2022/11/12 05:22:03;;;;;;;0.55;0.55;;;2.10;99.90;;;;;;5068847;28;20040;-79
2022/11/12 05:23:43;;;;;;;0.10;0.10;;;2.30;99.90;;;;;;5069838;28;20396;-79
2022/11/12 05:26:08;;;;;;;0.00;0.00;;;2.40;99.90;;;;;;5070650;28;20047;-79
2022/11/12 05:28:34;;;;;;;0.20;0.20;;;2.60;99.90;;;;;;5069763;28;20049;-79
2022/11/12 05:31:00;;;;;;;0.30;0.30;;;2.60;99.90;;;;;;5068631;28;20068;-79
2022/11/12 05:33:25;;;;;;;0.73;0.73;;;2.70;99.90;;;;;;5070562;28;20045;-79
2022/11/12 05:35:51;;;;;;;2.35;1.70;;;2.80;99.90;;;;;;5049372;28;20045;-79
2022/11/12 05:38:16;;;;;;;0.00;0.00;;;2.90;99.90;;;;;;5068276;28;20467;-79
2022/11/12 05:40:45;;;;;;;0.52;0.52;;;2.90;99.90;;;;;;5068667;28;20044;-79
2022/11/12 05:43:11;;;;;;;1.30;1.20;;;2.90;99.90;;;;;;5069242;28;20045;-79
2022/11/12 05:45:36;;;;;;;0.08;0.08;;;3.00;99.90;;;;;;5070043;28;20091;-79
2022/11/12 05:48:02;;;;;;;0.52;0.52;;;3.00;99.90;;;;;;5069558;28;20040;-79
2022/11/12 05:50:27;;;;;;;0.57;0.57;;;3.10;99.90;;;;;;5068949;28;20489;-80
2022/11/12 05:52:53;;;;;;;1.35;1.25;;;3.10;99.90;;;;;;5067720;28;20040;-79
2022/11/12 05:55:18;;;;;;;0.32;0.32;;;3.00;99.90;;;;;;5067230;28;20040;-79
2022/11/12 05:57:44;;;;;;;3.10;0.63;;;3.00;99.90;;;;;;5065954;28;20095;-79
2022/11/12 06:00:10;;;;;;;0.40;0.40;;;3.00;99.90;;;;;;5066871;28;20063;-79
2022/11/12 06:02:36;;;;;;;0.32;0.32;;;2.90;99.90;;;;;;5067297;28;20049;-78
2022/11/12 06:05:01;;;;;;;0.15;0.15;;;2.90;99.90;;;;;;5066639;28;20043;-79
2022/11/12 06:07:27;;;;;;;0.20;0.20;;;2.90;99.90;;;;;;5066066;28;20118;-79
2022/11/12 06:09:53;;;;;;;0.00;0.00;;;2.80;99.90;;;;;;5060210;28;20083;-79
2022/11/12 06:12:18;;;;;;;1.20;1.13;;;2.80;99.90;;;;;;5067736;28;20087;-79
2022/11/12 06:14:44;;;;;;;0.10;0.10;;;2.70;99.90;;;;;;5067228;28;20487;-79
2022/11/12 06:17:09;;;;;;;0.10;0.10;;;3.10;99.90;;;;;;5066676;28;20051;-79
2022/11/12 06:19:35;;;;;;;0.70;0.55;;;2.80;99.90;;;;;;5067458;28;20049;-79
2022/11/12 06:22:01;;;;;;;1.88;0.45;;;2.70;99.90;;;;;;5067139;28;20081;-78
2022/11/12 06:24:27;;;;;;;0.30;0.22;;;2.80;99.90;;;;;;5067054;28;20048;-79
2022/11/12 06:26:53;;;;;;;0.32;0.32;;;2.80;99.90;;;;;;5067240;28;20052;-80
2022/11/12 06:29:19;;;;;;;1.10;1.08;;;2.80;99.90;;;;;;5066588;28;20041;-79
2022/11/12 06:31:44;;;;;;;0.10;0.10;;;2.60;99.90;;;;;;5066079;28;20056;-79
2022/11/12 06:34:11;;;;;;;0.10;0.10;;;2.60;99.90;;;;;;5066352;28;20507;-79
2022/11/12 06:36:37;;;;;;;0.10;0.10;;;2.50;99.90;;;;;;5067367;28;20053;-79
2022/11/12 06:39:03;;;;;;;0.38;0.38;;;2.90;99.90;;;;;;5067360;28;20047;-79
2022/11/12 06:41:29;;;;;;;0.28;0.20;;;2.70;99.90;;;;;;5066367;28;20506;-80
2022/11/12 06:43:54;;;;;;;0.10;0.10;;;2.50;99.90;;;;;;5066663;28;20075;-80
2022/11/12 06:46:20;;;;;;;0.00;0.00;;;2.40;99.90;;;;;;5065957;28;20075;-80
2022/11/12 06:48:46;;;;;;;0.10;0.10;;;2.40;99.90;;;;;;5065855;28;20585;-79
2022/11/12 06:51:17;;;;;;;0.40;0.30;;;2.40;99.90;;;;;;5065482;28;20051;-79
2022/11/12 06:53:42;;;;;;;0.65;0.50;;;2.30;99.90;;;;;;5066313;28;20050;-79
2022/11/12 06:56:08;;;;;;;0.30;0.30;;;2.70;99.90;;;;;;5054528;28;20052;-79
2022/11/12 06:58:34;;;;;;;2.10;1.25;;;2.60;99.90;;;;;;5053813;28;20494;-79
2022/11/12 07:01:14;;;;;;;1.02;0.73;;;2.40;99.90;;;;;;5057355;28;20128;-79
2022/11/12 07:03:41;;;;;;;0.13;0.13;;;2.40;99.90;;;;;;5052271;28;20087;-79
2022/11/12 07:06:10;;;;;;;0.22;0.22;;;2.40;99.90;;;;;;5059452;28;20052;-80
2022/11/12 07:08:37;;;;;;;0.20;0.20;;;2.60;99.90;;;;;;5066969;28;20048;-79
2022/11/12 07:11:03;;;;;;;0.10;0.10;;;2.70;99.90;;;;;;5065557;28;20047;-79
2022/11/12 07:13:31;;;;;;;0.70;0.70;;;2.80;99.90;;;;;;5065595;28;20045;-79
2022/11/12 07:15:58;;;;;;;0.10;0.10;;;2.90;99.90;;;;;;5065244;28;20037;-79
2022/11/12 07:18:24;;;;;;;0.10;0.10;;;3.20;99.90;;;;;;5065296;28;20051;-80
2022/11/12 07:20:50;;;;;;;0.82;0.82;;;3.30;99.90;;;;;;5064648;28;20143;-80
2022/11/12 07:23:16;;;;;;;5.05;2.10;;;3.50;99.90;;;;;;5062716;28;20100;-80
2022/11/12 07:25:41;;;;;;;0.30;0.30;;;3.80;99.90;;;;;;5063264;28;20489;-79
2022/11/12 07:28:07;;;;;;;0.57;0.30;;;4.00;99.90;;;;;;5064716;28;20040;-79
2022/11/12 07:30:32;;;;;;;0.28;0.28;;;4.00;99.90;;;;;;5064386;28;20044;-79
2022/11/12 07:32:58;;;;;;;1.23;1.00;;;4.10;99.90;;;;;;5064361;28;20044;-79
2022/11/12 07:35:24;;;;;;;0.10;0.10;;;4.30;99.90;;;;;;5064368;28;20044;-80
2022/11/12 07:37:49;;;;;;;0.05;0.05;;;4.40;99.90;;;;;;5055765;28;20032;-79
2022/11/12 07:40:15;;;;;;;0.30;0.30;;;4.60;99.90;;;;;;5052577;28;20439;-80
2022/11/12 07:42:40;;;;;;;0.20;0.20;;;4.70;99.90;;;;;;5061526;28;21004;-79
2022/11/12 07:45:06;;;;;;;0.35;0.32;;;4.80;99.90;;;;;;5064982;28;20060;-80
2022/11/12 07:47:32;;;;;;;0.22;0.22;;;4.90;99.90;;;;;;5063824;28;20091;-80
2022/11/12 07:49:58;;;;;;;2.13;0.40;;;5.00;99.90;;;;;;5063853;28;20079;-80
2022/11/12 07:52:23;;;;;;;0.45;0.45;;;5.20;99.90;;;;;;5064201;28;20051;-80
2022/11/12 07:54:49;;;;;;;0.40;0.40;;;5.30;99.90;;;;;;5057159;28;20036;-80
2022/11/12 07:57:15;;;;;;;0.60;0.60;;;5.40;99.90;;;;;;5052679;28;20434;-80
2022/11/12 07:59:40;;;;;;;0.45;0.28;;;5.50;99.90;;;;;;5050643;28;20036;-80
2022/11/12 08:02:08;;;;;;;0.40;0.40;;;5.50;99.90;;;;;;5051995;28;20056;-80
2022/11/12 08:04:34;;;;;;;0.10;0.10;;;5.70;99.90;;;;;;5052276;28;20171;-80
2022/11/12 08:07:00;;;;;;;0.40;0.38;;;5.70;99.90;;;;;;5054713;28;20119;-80
2022/11/12 08:09:25;;;;;;;0.15;0.13;;;5.80;99.90;;;;;;5054122;28;20502;-81
2022/11/12 08:11:53;;;;;;;1.13;1.05;;;5.90;99.90;;;;;;5050163;28;20045;-80
2022/11/12 08:14:18;;;;;;;0.98;0.85;;;5.90;99.90;;;;;;5064202;28;20066;-80
2022/11/12 08:16:45;;;;;;;0.20;0.17;;;6.00;99.90;;;;;;5065024;28;20044;-80
2022/11/12 08:19:11;;;;;;;1.00;0.85;;;6.10;99.90;;;;;;5064392;28;20060;-80
2022/11/12 08:21:36;;;;;;;1.27;0.77;;;6.20;99.90;;;;;;5045280;28;20735;-80
2022/11/12 08:24:02;;;;;;;4.90;1.00;;;6.30;99.90;;;;;;5063286;28;20094;-80
2022/11/12 08:26:28;;;;;;;1.33;1.23;;;6.30;99.90;;;;;;5063196;28;20094;-80
2022/11/12 08:28:54;;;;;;;0.30;0.30;;;6.40;99.90;;;;;;5063231;28;20133;-80
2022/11/12 08:31:21;;;;;;;0.68;0.65;;;6.40;99.90;;;;;;5045386;28;20052;-80
2022/11/12 08:33:47;;;;;;;1.67;0.95;;;6.50;99.90;;;;;;5059935;28;20136;-80
2022/11/12 08:36:15;;;;;;;4.85;1.40;;;6.60;99.90;;;;;;5063176;28;20045;-80
2022/11/12 08:38:42;;;;;;;0.40;0.40;;;6.60;99.90;;;;;;5063568;28;20107;-80
2022/11/12 08:41:10;;;;;;;3.20;1.60;;;6.60;99.90;;;;;;5060424;28;20585;-80
2022/11/12 08:43:37;;;;;;;0.50;0.50;;;6.70;99.90;;;;;;5053218;28;20048;-80
2022/11/12 08:46:03;;;;;;;1.30;0.85;;;6.80;99.90;;;;;;5054422;28;20498;-81
2022/11/12 08:48:30;;;;;;;1.73;1.38;;;7.10;99.90;;;;;;5058196;28;20041;-80
2022/11/12 08:50:56;;;;;;;0.57;0.57;;;6.90;99.90;;;;;;5041485;28;20497;-80
2022/11/12 08:53:23;;;;;;;5.63;1.63;;;7.00;99.90;;;;;;5057100;28;20072;-80
2022/11/12 08:55:53;;;;;;;0.20;0.20;;;7.10;99.90;;;;;;5055863;28;20037;-80
2022/11/12 08:58:19;;;;;;;2.17;1.50;;;7.10;99.90;;;;;;5060833;28;20032;-80
2022/11/12 09:00:45;;;;;;;0.35;0.35;;;7.10;99.90;;;;;;5054702;28;20036;-80
2022/11/12 09:03:16;;;;;;;0.57;0.57;;;7.10;99.90;;;;;;5057204;28;20376;-80
2022/11/12 09:05:42;;;;;;;1.60;1.48;;;7.00;99.90;;;;;;5051251;28;20263;-80
2022/11/12 09:08:14;;;;;;;1.13;1.05;;;6.90;99.90;;;;;;5056428;28;20040;-80
2022/11/12 09:10:40;;;;;;;0.43;0.43;;;6.80;99.90;;;;;;5055030;28;20037;-80
2022/11/12 09:13:06;;;;;;;1.00;0.85;;;6.90;99.90;;;;;;5056807;28;20037;-80
2022/11/12 09:15:31;;;;;;;3.95;2.17;;;7.00;99.90;;;;;;5056588;28;20052;-80
2022/11/12 09:17:59;;;;;;;1.42;1.35;;;7.20;99.90;;;;;;5057893;28;20044;-80
2022/11/12 09:20:27;;;;;;;0.90;0.82;;;7.30;99.90;;;;;;5055917;28;20123;-80
2022/11/12 09:22:56;;;;;;;1.27;0.90;;;7.40;99.90;;;;;;5059835;28;20116;-80
2022/11/12 09:25:22;;;;;;;0.40;0.40;;;7.50;99.90;;;;;;5059624;28;20122;-81
2022/11/12 09:27:48;;;;;;;1.13;1.02;;;7.60;99.90;;;;;;5048336;28;20520;-80
2022/11/12 09:30:14;;;;;;;1.42;1.27;;;7.70;99.90;;;;;;5050570;28;20037;-80
2022/11/12 09:32:39;;;;;;;1.60;0.93;;;7.80;99.90;;;;;;5050816;28;20173;-80
2022/11/12 09:35:05;;;;;;;2.20;1.25;;;7.80;99.90;;;;;;5062472;28;20391;-80
2022/11/12 09:37:31;;;;;;;1.83;1.15;;;7.80;99.90;;;;;;5062871;28;20433;-80
2022/11/12 09:39:56;;;;;;;5.50;1.60;;;7.90;99.90;;;;;;5062922;28;20128;-80
2022/11/12 09:42:23;;;;;;;4.30;2.55;;;7.90;99.90;;;;;;5062647;28;20057;-80
2022/11/12 09:45:27;;;;;;;2.00;1.60;;;7.90;99.90;;;;;;5045284;28;20161;-79
2022/11/12 09:48:05;;;;;;;2.42;2.05;;;7.90;99.90;;;;;;5064146;28;20387;-79
2022/11/12 09:50:35;;;;;;;1.27;0.88;;;8.00;99.90;;;;;;5064461;28;20048;-79
2022/11/12 09:53:42;;;;;;;1.33;1.23;;;8.10;99.90;;;;;;5063966;28;20040;-79
2022/11/12 09:56:12;;;;;;;2.45;1.67;;;7.90;99.90;;;;;;5042234;28;20056;-80
2022/11/12 09:58:37;;;;;;;3.35;2.17;;;8.00;99.90;;;;;;5043992;28;20051;-80
2022/11/12 10:01:13;;;;;;;1.83;1.58;;;8.10;99.90;;;;;;5042827;28;20422;-80
2022/11/12 10:03:45;;;;;;;1.20;1.08;;;8.10;99.90;;;;;;5046536;28;20041;-79
2022/11/12 10:06:36;;;;;;;3.10;1.25;;;8.20;99.90;;;;;;5063593;28;20041;-79
2022/11/12 10:09:12;;;;;;;1.33;1.23;;;8.20;99.90;;;;;;5025531;28;20052;-79
2022/11/12 10:16:41;;;;;;;2.60;2.38;;;8.20;99.90;;;;;;5063389;28;20052;-79
2022/11/12 10:17:57;;;;;;;0.40;0.40;;;8.20;99.90;;;;;;5063582;28;20532;-79
2022/11/12 10:20:36;;;;;;;0.47;0.47;;;8.30;99.90;;;;;;5063631;28;20048;-79
2022/11/12 10:23:23;;;;;;;1.92;1.73;;;8.30;99.90;;;;;;5063207;28;20090;-79
2022/11/12 10:25:51;;;;;;;2.20;1.50;;;8.40;99.90;;;;;;5063536;28;20048;-80
2022/11/12 10:28:34;;;;;;;0.65;0.60;;;8.30;99.90;;;;;;5063495;28;20044;-80
2022/11/12 10:31:11;;;;;;;4.07;2.60;;;8.40;99.90;;;;;;5067874;28;20052;-79
2022/11/12 10:33:37;;;;;;;1.38;1.27;;;8.40;99.90;;;;;;5068885;28;20066;-79
2022/11/12 10:36:23;;;;;;;1.15;1.05;;;8.60;99.90;;;;;;5069257;28;20593;-80
2022/11/12 10:38:53;;;;;;;5.50;1.92;;;8.70;99.90;;;;;;5068087;28;20230;-80
2022/11/12 10:41:27;;;;;;;1.58;1.20;;;8.60;99.90;;;;;;5063418;28;20048;-80
2022/11/12 10:43:55;;;;;;;3.30;2.17;;;8.60;99.90;;;;;;5062867;28;20075;-79
2022/11/12 10:46:30;;;;;;;5.70;2.40;;;8.30;99.90;;;;;;5062778;28;20193;-80
2022/11/12 10:49:07;;;;;;;3.83;2.95;;;8.30;99.90;;;;;;5043247;28;20045;-79
2022/11/12 10:51:35;;;;;;;4.57;3.28;;;8.50;99.90;;;;;;5055605;28;20086;-79
2022/11/12 10:54:20;;;;;;;3.42;2.47;;;8.60;99.90;;;;;;5057122;28;20063;-79
2022/11/12 10:56:47;;;;;;;3.00;2.03;;;8.70;99.90;;;;;;5057713;28;20130;-80
2022/11/12 10:59:20;;;;;;;4.15;2.67;;;8.70;99.90;;;;;;5055062;28;20052;-79
2022/11/12 11:01:57;;;;;;;2.17;1.75;;;8.70;99.90;;;;;;5052589;28;20038;-80
2022/11/12 11:04:33;;;;;;;1.85;1.67;;;9.00;99.90;;;;;;5054088;28;20055;-80
2022/11/12 11:07:14;;;;;;;3.35;1.60;;;9.10;99.90;;;;;;5053236;28;20072;-80
2022/11/12 11:09:58;;;;;;;5.65;2.47;;;9.10;99.90;;;;;;5068788;28;20038;-79
2022/11/12 11:12:26;;;;;;;2.38;1.98;;;9.20;99.90;;;;;;5068660;28;20145;-79
2022/11/12 11:15:21;;;;;;;3.80;1.92;;;9.20;99.90;;;;;;5068366;28;20123;-79
2022/11/12 11:17:47;;;;;;;0.70;0.47;;;9.10;99.90;;;;;;5068108;28;20749;-79
2022/11/12 11:20:34;;;;;;;2.33;2.03;;;9.60;99.90;;;;;;5068153;28;20139;-80
2022/11/12 11:23:13;;;;;;;0.88;0.65;;;9.00;99.90;;;;;;5067690;28;20053;-79
2022/11/12 11:25:41;;;;;;;1.08;0.73;;;9.20;99.90;;;;;;5068109;28;20282;-79
2022/11/12 11:28:22;;;;;;;1.02;0.85;;;9.30;99.90;;;;;;5068567;28;20045;-79
2022/11/12 11:31:03;;;;;;;2.47;2.08;;;9.30;99.90;;;;;;5067965;28;20510;-79
2022/11/12 11:33:38;;;;;;;2.03;1.20;;;9.30;99.90;;;;;;5067900;28;20080;-79
2022/11/12 11:36:30;;;;;;;0.43;0.38;;;9.50;99.90;;;;;;5068353;28;20123;-79
2022/11/12 11:39:01;;;;;;;1.10;0.80;;;10.00;99.90;;;;;;5069614;28;20106;-79
2022/11/12 11:41:32;;;;;;;0.70;0.70;;;10.20;99.90;;;;;;5069176;28;20067;-79
2022/11/12 11:44:20;;;;;;;0.32;0.32;;;10.30;99.90;;;;;;5070168;28;20041;-79
2022/11/12 11:46:52;;;;;;;1.45;1.35;;;10.60;99.90;;;;;;5069498;28;20055;-79
2022/11/12 11:49:58;;;;;;;0.60;0.52;;;10.70;99.90;;;;;;5069628;28;20064;-79
2022/11/12 11:52:50;;;;;;;1.25;1.15;;;10.60;99.90;;;;;;5069487;28;20048;-79
2022/11/12 11:55:35;;;;;;;2.38;0.25;;;10.80;99.90;;;;;;5069487;28;20493;-79
2022/11/12 11:58:29;;;;;;;1.42;1.33;;;10.80;99.90;;;;;;5051037;28;20048;-78
2022/11/12 12:01:19;;;;;;;0.30;0.30;;;10.80;99.90;;;;;;5069266;28;20114;-79
2022/11/12 12:04:05;;;;;;;2.05;1.17;;;10.90;99.90;;;;;;5068989;28;20379;-80
2022/11/12 12:06:51;;;;;;;0.82;0.73;;;11.00;1.00;;;;;;5069053;28;20897;-79
2022/11/12 12:09:34;;;;;;;4.75;1.20;;;11.20;99.90;;;;;;5068698;28;20082;-79
2022/11/12 12:12:26;;;;;;;1.50;0.65;;;11.30;83.40;;;;;;5068441;28;20048;-79
2022/11/12 12:15:14;;;;;;;0.32;0.32;;;11.30;99.90;;;;;;5067788;28;20502;-79
2022/11/12 12:18:01;;;;;;;0.85;0.68;;;11.40;99.90;;;;;;5068204;28;20056;-79
2022/11/12 12:20:33;;;;;;;0.47;0.47;;;11.70;1.00;;;;;;5067519;28;20554;-79
2022/11/12 12:23:03;;;;;;;0.88;0.88;;;12.00;99.90;;;;;;5068466;28;20116;-79
2022/11/12 12:25:34;;;;;;;1.58;0.50;;;12.10;99.90;;;;;;5067947;28;20452;-79
2022/11/12 12:28:35;;;;;;;1.52;1.20;;;12.00;99.90;;;;;;5068108;28;20055;-78
2022/11/12 12:31:11;;;;;;;0.47;0.45;;;11.90;27.90;;;;;;5068285;28;20062;-79
2022/11/12 12:33:51;;;;;;;2.55;1.38;;;11.90;99.90;;;;;;5033284;28;20052;-79
2022/11/12 12:36:23;;;;;;;0.47;0.47;;;12.00;99.90;;;;;;5049449;28;20418;-79
2022/11/12 12:38:54;;;;;;;0.00;0.00;;;12.00;99.90;;;;;;5066802;28;20084;-76
2022/11/12 12:41:26;;;;;;;1.38;0.50;;;12.10;99.90;;;;;;5067541;28;20068;-76
2022/11/12 12:44:03;;;;;;;0.80;0.70;;;12.10;1.00;;;;;;5066503;28;20045;-76
2022/11/12 12:46:33;;;;;;;1.52;0.63;;;12.00;1.00;;;;;;5067164;28;20040;-76
2022/11/12 12:49:00;;;;;;;1.95;1.65;;;12.00;99.90;;;;;;5066883;28;20154;-79
2022/11/12 12:51:29;;;;;;;0.20;0.20;;;12.00;34.90;;;;;;5067377;28;20048;-76
2022/11/12 12:53:55;;;;;;;2.83;1.52;;;12.20;1.00;;;;;;5066852;28;20087;-77
2022/11/12 12:56:30;;;;;;;1.73;1.45;;;12.20;1.00;;;;;;5066246;28;20088;-79
2022/11/12 12:59:02;;;;;;;1.00;0.95;;;12.20;99.90;;;;;;5066860;28;20517;-79
2022/11/12 13:01:31;;;;;;;1.70;1.02;;;12.20;1.00;;;;;;5066427;28;20121;-76
2022/11/12 13:03:58;;;;;;;0.82;0.63;;;12.10;98.90;;;;;;5066311;28;20128;-76
2022/11/12 13:06:29;;;;;;;4.47;1.45;;;12.20;90.50;;;;;;5067017;28;20041;-76
2022/11/12 13:09:23;;;;;;;0.45;0.45;;;12.30;1.00;;;;;;5066164;28;20487;-76
2022/11/12 13:14:34;;;;;;;0.35;0.35;;;12.60;1.00;;;;;;5066013;28;20583;-76
2022/11/12 13:17:03;;;;;;;3.40;1.40;;;12.70;99.90;;;;;;5066703;28;20060;-76
2022/11/12 13:19:46;;;;;;;0.68;0.43;;;12.70;1.00;;;;;;5066846;28;20122;-78
2022/11/12 13:22:17;;;;;;;3.40;1.23;;;12.80;99.90;;;;;;5070674;28;20056;-78
2022/11/12 13:25:11;;;;;;;1.15;0.90;;;12.60;99.90;;;;;;5070029;28;20553;-78
2022/11/12 13:27:45;;;;;;;2.35;1.52;;;12.70;81.10;;;;;;5070384;28;20068;-78
2022/11/12 13:30:17;;;;;;;3.50;1.20;;;12.90;99.90;;;;;;5070535;28;20100;-78
2022/11/12 13:32:48;;;;;;;1.20;1.02;;;12.90;99.90;;;;;;5069913;28;20647;-78
2022/11/12 13:35:34;;;;;;;0.85;0.70;;;13.00;99.90;;;;;;5052280;28;20056;-78
2022/11/12 13:38:08;;;;;;;5.38;1.52;;;13.00;99.90;;;;;;5070551;28;20169;-78